createdAt,value
2019-05-01T00:01:01.787Z,92.00
2019-05-01T00:03:32.218Z,92.10
2019-05-01T00:06:02.651Z,92.20
2019-05-01T00:08:31.479Z,92.30
2019-05-01T00:11:00.448Z,92.40
2019-05-01T00:13:29.316Z,92.60
2019-05-01T00:15:58.444Z,92.60
2019-05-01T00:18:27.356Z,92.60
2019-05-01T00:20:56.174Z,92.60
2019-05-01T00:23:24.999Z,92.60
2019-05-01T00:25:53.868Z,92.80
2019-05-01T00:28:22.732Z,92.80
2019-05-01T00:30:51.553Z,92.80
2019-05-01T00:33:20.415Z,92.80
2019-05-01T00:35:49.279Z,92.80
2019-05-01T00:38:18.103Z,92.90
2019-05-01T00:40:46.975Z,92.90
2019-05-01T00:43:15.837Z,93.00
2019-05-01T00:45:44.658Z,92.90
2019-05-01T00:48:13.519Z,92.90
2019-05-01T00:50:43.846Z,92.90
2019-05-01T00:53:12.670Z,93.00
2019-05-01T00:55:49.114Z,93.00
2019-05-01T00:58:19.551Z,93.00
2019-05-01T01:01:09.531Z,93.10
2019-05-01T01:03:39.404Z,93.10
2019-05-01T01:06:08.327Z,93.20
2019-05-01T01:08:37.187Z,93.30
2019-05-01T01:11:06.155Z,93.30
2019-05-01T01:13:34.976Z,93.40
2019-05-01T01:16:03.847Z,93.40
2019-05-01T01:18:32.715Z,93.50
2019-05-01T01:21:01.542Z,93.50
2019-05-01T01:23:31.935Z,93.60
2019-05-01T01:26:00.803Z,93.60
2019-05-01T01:28:29.626Z,93.70
2019-05-01T01:30:58.495Z,93.70
2019-05-01T01:33:27.359Z,93.70
2019-05-01T01:35:56.187Z,93.80
2019-05-01T01:38:25.055Z,93.90
2019-05-01T01:40:54.019Z,93.90
2019-05-01T01:43:40.878Z,94.00
2019-05-01T01:46:27.728Z,94.10
2019-05-01T01:48:56.692Z,94.00
2019-05-01T01:51:25.656Z,94.00
2019-05-01T01:53:54.875Z,94.10
2019-05-01T01:56:23.835Z,94.20
2019-05-01T01:58:53.808Z,94.60
2019-05-01T02:01:33.267Z,94.30
2019-05-01T02:04:09.681Z,94.30
2019-05-01T02:06:38.547Z,94.40
2019-05-01T02:09:08.516Z,94.40
2019-05-01T02:11:37.327Z,94.40
2019-05-01T02:14:06.193Z,94.40
2019-05-01T02:16:35.060Z,94.50
2019-05-01T02:19:03.987Z,94.50
2019-05-01T02:21:32.856Z,94.50
2019-05-01T02:24:01.719Z,94.60
2019-05-01T02:26:32.120Z,94.90
2019-05-01T02:29:08.596Z,94.60
2019-05-01T02:31:40.128Z,94.60
2019-05-01T02:34:09.996Z,94.60
2019-05-01T02:36:41.576Z,94.70
2019-05-01T02:39:10.394Z,94.70
2019-05-01T02:41:42.197Z,94.70
2019-05-01T02:44:17.098Z,94.70
2019-05-01T02:46:48.774Z,94.70
2019-05-01T02:49:38.944Z,94.80
2019-05-01T02:52:10.748Z,94.90
2019-05-01T02:54:42.021Z,94.90
2019-05-01T02:57:12.563Z,94.90
2019-05-01T02:59:44.508Z,94.90
2019-05-01T03:02:13.731Z,95.00
2019-05-01T03:04:43.400Z,95.00
2019-05-01T03:07:12.869Z,95.10
2019-05-01T03:09:42.451Z,95.20
2019-05-01T03:12:11.585Z,95.20
2019-05-01T03:14:43.515Z,95.20
2019-05-01T03:17:32.234Z,95.30
2019-05-01T03:20:04.295Z,95.20
2019-05-01T03:22:40.851Z,95.20
2019-05-01T03:25:09.815Z,95.30
2019-05-01T03:27:38.644Z,95.30
2019-05-01T03:30:07.810Z,95.30
2019-05-01T03:32:36.796Z,95.40
2019-05-01T03:35:07.117Z,95.40
2019-05-01T03:37:37.081Z,95.80
2019-05-01T03:40:06.544Z,95.50
2019-05-01T03:42:35.853Z,95.60
2019-05-01T03:45:06.617Z,95.70
2019-05-01T03:47:35.986Z,95.70
2019-05-01T03:50:06.008Z,95.70
2019-05-01T03:52:35.992Z,95.80
2019-05-01T03:55:05.466Z,95.70
2019-05-01T03:57:34.337Z,95.70
2019-05-01T04:00:06.237Z,95.70
2019-05-01T04:02:48.667Z,95.70
2019-05-01T04:05:17.593Z,95.70
2019-05-01T04:07:47.360Z,95.80
2019-05-01T04:10:16.781Z,95.70
2019-05-01T04:12:45.950Z,95.70
2019-05-01T04:15:14.776Z,95.80
2019-05-01T04:17:45.296Z,95.80
2019-05-01T04:20:14.437Z,95.90
2019-05-01T04:22:43.502Z,95.90
2019-05-01T04:25:12.727Z,95.90
2019-05-01T04:27:43.323Z,96.00
2019-05-01T04:30:19.917Z,96.30
2019-05-01T04:32:52.988Z,96.00
2019-05-01T04:35:39.279Z,96.00
2019-05-01T04:38:08.259Z,96.00
2019-05-01T04:40:37.707Z,96.30
2019-05-01T04:43:06.785Z,96.00
2019-05-01T04:45:35.781Z,96.00
2019-05-01T04:48:05.003Z,96.10
2019-05-01T04:50:34.841Z,96.10
2019-05-01T04:53:03.872Z,96.10
2019-05-01T04:55:32.965Z,96.10
2019-05-01T04:58:02.223Z,96.10
2019-05-01T05:00:31.691Z,96.20
2019-05-01T05:03:05.604Z,96.20
2019-05-01T05:05:34.834Z,96.20
2019-05-01T05:08:04.060Z,96.20
2019-05-01T05:10:33.125Z,96.30
2019-05-01T05:13:16.153Z,96.30
2019-05-01T05:16:02.716Z,96.30
2019-05-01T05:18:31.675Z,96.30
2019-05-01T05:21:01.000Z,96.30
2019-05-01T05:23:30.469Z,96.20
2019-05-01T05:25:59.741Z,96.20
2019-05-01T05:28:31.360Z,96.20
2019-05-01T05:31:01.404Z,96.20
2019-05-01T05:33:33.680Z,96.20
2019-05-01T05:36:04.444Z,96.20
2019-05-01T05:38:50.985Z,96.30
2019-05-01T05:41:21.451Z,96.30
2019-05-01T05:43:50.316Z,96.30
2019-05-01T05:46:19.339Z,96.30
2019-05-01T05:48:48.415Z,96.30
2019-05-01T05:51:25.032Z,96.40
2019-05-01T05:54:03.334Z,96.40
2019-05-01T05:56:47.873Z,96.40
2019-05-01T05:59:20.175Z,96.40
2019-05-01T06:02:09.692Z,96.40
2019-05-01T06:04:52.338Z,96.30
2019-05-01T06:07:25.076Z,96.30
2019-05-01T06:10:13.782Z,96.20
2019-05-01T06:12:46.924Z,96.20
2019-05-01T06:15:27.500Z,96.00
2019-05-01T06:17:59.055Z,95.90
2019-05-01T06:20:46.605Z,96.00
2019-05-01T06:23:25.375Z,95.90
2019-05-01T06:26:00.333Z,95.80
2019-05-01T06:28:29.690Z,95.70
2019-05-01T06:31:00.214Z,95.60
2019-05-01T06:33:29.075Z,95.60
2019-05-01T06:35:57.965Z,95.50
2019-05-01T06:38:26.783Z,95.40
2019-05-01T06:40:58.178Z,95.40
2019-05-01T06:43:34.491Z,95.20
2019-05-01T06:46:08.272Z,95.10
2019-05-01T06:48:40.417Z,94.90
2019-05-01T06:51:26.863Z,94.80
2019-05-01T06:53:55.727Z,94.60
2019-05-01T06:56:24.567Z,94.40
2019-05-01T06:58:55.231Z,94.30
2019-05-01T07:01:42.443Z,94.10
2019-05-01T07:04:14.002Z,94.00
2019-05-01T07:06:41.936Z,94.10
2019-05-01T07:09:11.814Z,94.10
2019-05-01T07:11:47.728Z,94.10
2019-05-01T07:14:16.584Z,94.00
2019-05-01T07:16:44.395Z,93.90
2019-05-01T07:19:14.066Z,93.80
2019-05-01T07:21:43.031Z,93.80
2019-05-01T07:24:11.868Z,93.60
2019-05-01T07:26:43.990Z,93.00
2019-05-01T07:29:21.355Z,92.90
2019-05-01T07:31:50.227Z,93.30
2019-05-01T07:34:21.665Z,92.90
2019-05-01T07:36:50.141Z,92.90
2019-05-01T07:39:20.116Z,92.90
2019-05-01T07:41:49.191Z,92.90
2019-05-01T07:44:19.597Z,92.80
2019-05-01T07:46:56.289Z,92.70
2019-05-01T07:49:37.015Z,92.50
2019-05-01T07:52:06.188Z,92.30
2019-05-01T07:54:37.829Z,92.20
2019-05-01T07:57:05.649Z,91.90
2019-05-01T07:59:34.527Z,91.90
2019-05-01T08:02:05.072Z,91.80
2019-05-01T08:04:36.362Z,91.70
2019-05-01T08:07:04.635Z,91.60
2019-05-01T08:09:33.526Z,91.40
2019-05-01T08:12:02.342Z,91.40
2019-05-01T08:14:31.216Z,91.20
2019-05-01T08:17:00.091Z,91.10
2019-05-01T08:19:30.506Z,90.90
2019-05-01T08:22:07.383Z,90.70
2019-05-01T08:24:36.359Z,90.60
2019-05-01T08:27:06.973Z,90.30
2019-05-01T08:29:41.881Z,90.10
2019-05-01T08:32:33.904Z,89.60
2019-05-01T08:35:02.755Z,89.40
2019-05-01T08:37:31.587Z,88.70
2019-05-01T08:40:00.422Z,88.20
2019-05-01T08:42:29.300Z,87.50
2019-05-01T08:45:05.111Z,86.60
2019-05-01T08:47:37.551Z,86.40
2019-05-01T08:50:11.207Z,86.20
2019-05-01T08:52:42.719Z,85.50
2019-05-01T08:55:11.559Z,84.50
2019-05-01T08:57:40.441Z,83.90
2019-05-01T09:00:09.476Z,83.40
2019-05-01T09:02:41.687Z,82.40
2019-05-01T09:05:27.603Z,81.70
2019-05-01T09:07:41.964Z,81.30
2019-05-01T09:10:11.615Z,80.90
2019-05-01T09:12:42.611Z,80.40
2019-05-01T09:15:12.621Z,80.10
2019-05-01T09:17:41.599Z,79.70
2019-05-01T09:20:11.130Z,78.80
2019-05-01T09:22:55.229Z,77.80
2019-05-01T09:25:25.639Z,77.30
2019-05-01T09:28:04.079Z,76.90
2019-05-01T09:30:35.627Z,76.50
2019-05-01T09:33:04.841Z,76.30
2019-05-01T09:35:33.804Z,75.70
2019-05-01T09:38:02.911Z,75.60
2019-05-01T09:40:34.165Z,75.60
2019-05-01T09:43:03.164Z,75.40
2019-05-01T09:45:32.313Z,75.50
2019-05-01T09:48:01.549Z,75.00
2019-05-01T09:50:32.356Z,74.80
2019-05-01T09:53:05.756Z,74.30
2019-05-01T09:55:39.154Z,74.40
2019-05-01T09:58:08.009Z,74.40
2019-05-01T10:00:36.881Z,73.70
2019-05-01T10:03:05.856Z,73.30
2019-05-01T10:05:38.017Z,73.40
2019-05-01T10:08:05.448Z,73.70
2019-05-01T10:10:36.963Z,73.40
2019-05-01T10:13:05.294Z,72.80
2019-05-01T10:15:34.251Z,72.50
2019-05-01T10:18:03.141Z,72.10
2019-05-01T10:20:31.975Z,71.60
2019-05-01T10:23:00.886Z,70.90
2019-05-01T10:25:29.763Z,70.70
2019-05-01T10:28:00.176Z,70.60
2019-05-01T10:30:36.288Z,70.10
2019-05-01T10:33:05.437Z,69.60
2019-05-01T10:35:42.297Z,68.70
2019-05-01T10:38:09.322Z,67.50
2019-05-01T10:40:36.889Z,67.80
2019-05-01T10:43:05.768Z,67.80
2019-05-01T10:45:34.640Z,67.70
2019-05-01T10:48:03.474Z,67.70
2019-05-01T10:50:32.343Z,67.90
2019-05-01T10:53:01.219Z,68.60
2019-05-01T10:55:30.056Z,69.10
2019-05-01T10:57:58.940Z,69.60
2019-05-01T11:00:27.922Z,70.10
2019-05-01T11:02:56.751Z,69.90
2019-05-01T11:05:25.733Z,69.80
2019-05-01T11:07:54.607Z,70.20
2019-05-01T11:10:23.436Z,70.40
2019-05-01T11:12:52.312Z,71.00
2019-05-01T11:15:21.200Z,71.50
2019-05-01T11:17:50.027Z,71.70
2019-05-01T11:20:18.916Z,71.70
2019-05-01T11:22:47.790Z,71.60
2019-05-01T11:25:18.238Z,71.50
2019-05-01T11:27:47.172Z,71.20
2019-05-01T11:30:16.382Z,71.20
2019-05-01T11:32:56.068Z,70.60
2019-05-01T11:35:42.752Z,70.10
2019-05-01T11:38:28.432Z,70.30
2019-05-01T11:41:02.027Z,71.20
2019-05-01T11:43:30.909Z,71.90
2019-05-01T11:46:00.081Z,72.40
2019-05-01T11:48:30.131Z,73.10
2019-05-01T11:50:59.471Z,73.70
2019-05-01T11:53:28.348Z,74.20
2019-05-01T11:55:57.183Z,74.50
2019-05-01T11:58:32.919Z,74.40
2019-05-01T12:01:00.723Z,75.20
2019-05-01T12:03:29.565Z,75.70
2019-05-01T12:05:58.449Z,75.80
2019-05-01T12:08:27.323Z,76.00
2019-05-01T12:10:56.152Z,76.30
2019-05-01T12:13:44.031Z,76.30
2019-05-01T12:16:15.373Z,76.20
2019-05-01T12:18:44.251Z,76.50
2019-05-01T12:21:13.124Z,76.40
2019-05-01T12:24:09.406Z,76.50
2019-05-01T12:26:38.287Z,76.40
2019-05-01T12:29:07.121Z,76.50
2019-05-01T12:31:35.995Z,77.10
2019-05-01T12:34:04.871Z,76.30
2019-05-01T12:36:36.706Z,76.30
2019-05-01T12:39:10.375Z,76.30
2019-05-01T12:41:41.219Z,76.10
2019-05-01T12:44:10.061Z,76.00
2019-05-01T12:46:40.516Z,76.10
2019-05-01T12:49:09.378Z,76.50
2019-05-01T12:51:39.316Z,76.30
2019-05-01T12:54:16.803Z,76.20
2019-05-01T12:56:56.344Z,76.10
2019-05-01T12:59:25.216Z,75.40
2019-05-01T13:01:54.096Z,74.50
2019-05-01T13:04:22.959Z,73.50
2019-05-01T13:06:55.112Z,73.10
2019-05-01T13:09:24.001Z,72.80
2019-05-01T13:11:52.837Z,72.60
2019-05-01T13:14:21.710Z,72.00
2019-05-01T13:16:50.617Z,71.30
2019-05-01T13:19:19.455Z,70.60
2019-05-01T13:21:48.339Z,69.60
2019-05-01T13:24:17.906Z,68.60
2019-05-01T13:26:48.324Z,68.30
2019-05-01T13:29:18.771Z,68.60
2019-05-01T13:31:49.211Z,67.20
2019-05-01T13:34:18.048Z,66.90
2019-05-01T13:36:46.921Z,66.30
2019-05-01T13:39:16.496Z,66.00
2019-05-01T13:41:45.332Z,66.00
2019-05-01T13:44:14.306Z,66.00
2019-05-01T13:46:43.176Z,64.50
2019-05-01T13:49:12.110Z,63.30
2019-05-01T13:51:40.978Z,62.80
2019-05-01T13:54:11.573Z,62.20
2019-05-01T13:56:40.404Z,61.70
2019-05-01T13:59:10.949Z,61.20
2019-05-01T14:01:39.826Z,61.70
2019-05-01T14:04:08.791Z,62.30
2019-05-01T14:06:37.844Z,62.60
2019-05-01T14:09:09.902Z,63.10
2019-05-01T14:11:39.008Z,63.10
2019-05-01T14:14:08.073Z,62.90
2019-05-01T14:16:37.029Z,62.80
2019-05-01T14:19:05.895Z,62.40
2019-05-01T14:21:45.578Z,62.20
2019-05-01T14:24:22.291Z,62.20
2019-05-01T14:26:51.336Z,61.90
2019-05-01T14:29:20.413Z,61.00
2019-05-01T14:31:49.462Z,59.70
2019-05-01T14:34:18.382Z,59.80
2019-05-01T14:36:47.258Z,59.70
2019-05-01T14:39:16.187Z,59.20
2019-05-01T14:41:45.059Z,58.80
2019-05-01T14:44:13.929Z,58.20
2019-05-01T14:46:42.755Z,58.00
2019-05-01T14:49:11.726Z,57.80
2019-05-01T14:51:40.602Z,57.30
2019-05-01T14:54:09.426Z,56.70
2019-05-01T14:56:38.299Z,56.10
2019-05-01T14:59:07.171Z,55.80
2019-05-01T15:01:36.000Z,55.90
2019-05-01T15:04:04.974Z,56.20
2019-05-01T15:06:33.843Z,56.40
2019-05-01T15:09:02.675Z,56.10
2019-05-01T15:11:31.735Z,55.90
2019-05-01T15:14:02.190Z,56.20
2019-05-01T15:16:35.588Z,56.10
2019-05-01T15:19:06.128Z,55.80
2019-05-01T15:21:34.961Z,55.70
2019-05-01T15:24:03.827Z,56.90
2019-05-01T15:26:32.698Z,56.30
2019-05-01T15:29:01.530Z,55.90
2019-05-01T15:31:30.403Z,56.20
2019-05-01T15:33:59.272Z,56.40
2019-05-01T15:36:28.104Z,56.10
2019-05-01T15:38:57.670Z,55.80
2019-05-01T15:41:44.402Z,55.80
2019-05-01T15:44:26.398Z,55.80
2019-05-01T15:46:55.251Z,55.50
2019-05-01T15:49:24.075Z,55.50
2019-05-01T15:51:52.951Z,55.50
2019-05-01T15:54:22.834Z,55.80
2019-05-01T15:56:51.658Z,56.40
2019-05-01T15:59:20.531Z,56.80
2019-05-01T16:01:49.395Z,57.60
2019-05-01T16:04:18.370Z,58.00
2019-05-01T16:06:47.240Z,57.90
2019-05-01T16:09:16.395Z,57.90
2019-05-01T16:11:55.874Z,58.00
2019-05-01T16:14:24.752Z,57.50
2019-05-01T16:16:53.577Z,57.20
2019-05-01T16:19:22.443Z,57.40
2019-05-01T16:21:51.308Z,57.00
2019-05-01T16:24:21.833Z,56.80
2019-05-01T16:26:50.700Z,56.90
2019-05-01T16:29:19.570Z,57.40
2019-05-01T16:31:48.403Z,57.60
2019-05-01T16:34:17.263Z,57.40
2019-05-01T16:36:46.139Z,57.00
2019-05-01T16:39:31.835Z,57.20
2019-05-01T16:42:00.703Z,57.50
2019-05-01T16:44:29.530Z,57.70
2019-05-01T16:46:58.407Z,58.20
2019-05-01T16:49:27.303Z,58.90
2019-05-01T16:51:56.431Z,59.70
2019-05-01T16:54:26.319Z,60.20
2019-05-01T16:56:57.357Z,60.20
2019-05-01T16:59:25.662Z,61.10
2019-05-01T17:02:02.100Z,62.10
2019-05-01T17:04:44.475Z,62.20
2019-05-01T17:07:18.094Z,61.90
2019-05-01T17:09:48.536Z,61.80
2019-05-01T17:12:19.246Z,62.40
2019-05-01T17:14:48.126Z,63.10
2019-05-01T17:17:19.038Z,63.10
2019-05-01T17:20:00.005Z,63.00
2019-05-01T17:22:28.874Z,62.90
2019-05-01T17:24:57.698Z,63.80
2019-05-01T17:27:26.561Z,65.00
2019-05-01T17:29:55.445Z,65.10
2019-05-01T17:32:24.264Z,64.20
2019-05-01T17:34:53.130Z,64.10
2019-05-01T17:37:22.000Z,65.00
2019-05-01T17:39:50.823Z,66.20
2019-05-01T17:42:19.690Z,67.20
2019-05-01T17:44:48.563Z,68.20
2019-05-01T17:47:17.959Z,69.30
2019-05-01T17:49:47.903Z,69.80
2019-05-01T17:52:16.879Z,70.20
2019-05-01T17:54:45.711Z,70.60
2019-05-01T17:57:14.589Z,71.50
2019-05-01T17:59:45.023Z,72.30
2019-05-01T18:02:21.288Z,72.50
2019-05-01T18:04:57.530Z,72.90
2019-05-01T18:07:28.725Z,73.40
2019-05-01T18:09:58.379Z,73.90
2019-05-01T18:12:28.559Z,74.90
2019-05-01T18:14:57.743Z,75.60
2019-05-01T18:17:26.814Z,76.00
2019-05-01T18:19:55.789Z,76.90
2019-05-01T18:22:44.343Z,76.60
2019-05-01T18:25:16.257Z,77.10
2019-05-01T18:28:04.854Z,77.50
2019-05-01T18:30:38.670Z,78.90
2019-05-01T18:33:07.655Z,78.40
2019-05-01T18:35:36.775Z,79.20
2019-05-01T18:38:16.941Z,79.60
2019-05-01T18:40:56.534Z,79.70
2019-05-01T18:43:27.134Z,79.80
2019-05-01T18:45:57.998Z,80.20
2019-05-01T18:48:27.081Z,80.70
2019-05-01T18:50:56.568Z,81.30
2019-05-01T18:53:25.817Z,82.10
2019-05-01T18:55:56.171Z,81.90
2019-05-01T18:58:25.349Z,82.90
2019-05-01T19:00:54.411Z,83.40
2019-05-01T19:03:23.709Z,83.80
2019-05-01T19:05:52.654Z,84.20
2019-05-01T19:08:22.044Z,84.10
2019-05-01T19:10:51.253Z,84.40
2019-05-01T19:13:20.931Z,84.90
2019-05-01T19:15:50.130Z,85.30
2019-05-01T19:18:19.251Z,85.60
2019-05-01T19:20:58.910Z,86.00
2019-05-01T19:23:22.277Z,86.40
2019-05-01T19:25:49.776Z,86.50
2019-05-01T19:28:18.910Z,86.90
2019-05-01T19:30:49.552Z,87.30
2019-05-01T19:33:18.474Z,87.70
2019-05-01T19:35:50.931Z,87.90
2019-05-01T19:38:20.176Z,88.30
2019-05-01T19:40:49.486Z,88.60
2019-05-01T19:43:18.478Z,89.10
2019-05-01T19:45:47.409Z,89.30
2019-05-01T19:48:16.478Z,89.50
2019-05-01T19:50:48.369Z,89.60
2019-05-01T19:53:16.005Z,89.90
2019-05-01T19:55:46.681Z,90.00
2019-05-01T19:58:15.615Z,90.50
2019-05-01T20:00:56.611Z,90.20
2019-05-01T20:03:30.572Z,90.40
2019-05-01T20:05:59.635Z,90.50
2019-05-01T20:08:27.175Z,90.70
2019-05-01T20:10:56.147Z,90.70
2019-05-01T20:13:24.974Z,90.80
2019-05-01T20:15:53.955Z,90.80
2019-05-01T20:18:22.940Z,91.30
2019-05-01T20:20:51.884Z,91.00
2019-05-01T20:23:20.797Z,91.20
2019-05-01T20:25:50.964Z,91.30
2019-05-01T20:28:22.364Z,91.40
2019-05-01T20:30:50.764Z,91.50
2019-05-01T20:33:19.635Z,91.50
2019-05-01T20:35:48.476Z,91.60
2019-05-01T20:38:17.343Z,91.70
2019-05-01T20:40:46.222Z,91.80
2019-05-01T20:43:15.078Z,92.00
2019-05-01T20:45:48.880Z,92.10
2019-05-01T20:48:18.404Z,92.20
2019-05-01T20:50:46.140Z,92.30
2019-05-01T20:53:15.454Z,92.30
2019-05-01T20:55:46.227Z,92.40
2019-05-01T20:58:19.071Z,92.60
2019-05-01T21:00:53.450Z,92.60
2019-05-01T21:03:20.195Z,92.70
2019-05-01T21:06:07.830Z,92.60
2019-05-01T21:08:43.619Z,92.60
2019-05-01T21:11:14.067Z,92.70
2019-05-01T21:13:42.943Z,92.80
2019-05-01T21:16:11.771Z,92.80
2019-05-01T21:18:40.644Z,92.90
2019-05-01T21:21:09.516Z,93.00
2019-05-01T21:23:38.343Z,93.00
2019-05-01T21:26:16.288Z,93.10
2019-05-01T21:28:45.162Z,93.20
2019-05-01T21:31:14.004Z,93.20
2019-05-01T21:33:46.336Z,93.40
2019-05-01T21:36:13.395Z,93.50
2019-05-01T21:38:42.228Z,93.60
2019-05-01T21:41:11.091Z,94.10
2019-05-01T21:43:39.968Z,94.20
2019-05-01T21:46:08.787Z,94.20
2019-05-01T21:48:37.659Z,94.30
2019-05-01T21:51:07.534Z,94.30
2019-05-01T21:53:37.280Z,94.60
2019-05-01T21:56:07.616Z,94.50
2019-05-01T21:58:36.545Z,94.50
2019-05-01T22:01:06.881Z,94.50
2019-05-01T22:03:35.747Z,94.50
2019-05-01T22:06:04.614Z,94.60
2019-05-01T22:08:34.636Z,94.70
2019-05-01T22:11:05.270Z,94.80
2019-05-01T22:13:34.143Z,94.90
2019-05-01T22:16:22.354Z,94.90
2019-05-01T22:18:54.967Z,95.00
2019-05-01T22:21:31.394Z,95.00
2019-05-01T22:24:07.594Z,95.10
2019-05-01T22:26:38.034Z,95.00
2019-05-01T22:29:08.476Z,95.20
2019-05-01T22:31:52.933Z,95.20
2019-05-01T22:34:39.841Z,95.20
2019-05-01T22:37:08.915Z,95.20
2019-05-01T22:39:39.352Z,95.20
2019-05-01T22:42:08.514Z,95.40
2019-05-01T22:44:37.342Z,95.40
2019-05-01T22:47:10.218Z,95.40
2019-05-01T22:49:38.617Z,95.50
2019-05-01T22:52:07.512Z,95.50
2019-05-01T22:54:37.580Z,95.60
2019-05-01T22:57:06.411Z,95.70
2019-05-01T22:59:35.325Z,95.70
2019-05-01T23:02:05.895Z,95.70
2019-05-01T23:04:34.819Z,95.80
2019-05-01T23:07:03.655Z,95.90
2019-05-01T23:09:33.319Z,96.00
2019-05-01T23:12:02.149Z,96.00
2019-05-01T23:14:31.319Z,96.00
2019-05-01T23:17:07.975Z,96.00
2019-05-01T23:19:36.941Z,96.10
2019-05-01T23:22:06.675Z,96.10
2019-05-01T23:24:35.510Z,96.20
2019-05-01T23:27:04.384Z,96.20
2019-05-01T23:29:33.211Z,96.20
2019-05-01T23:32:02.193Z,96.30
2019-05-01T23:34:37.122Z,96.20
2019-05-01T23:37:05.990Z,96.30
2019-05-01T23:39:40.404Z,96.30
2019-05-01T23:42:05.435Z,96.40
2019-05-01T23:44:38.186Z,96.40
2019-05-01T23:47:04.788Z,96.50
2019-05-01T23:49:33.618Z,96.50
2019-05-01T23:52:03.456Z,96.50
2019-05-01T23:54:32.962Z,96.60
2019-05-01T23:57:01.835Z,96.60
2019-05-01T23:59:30.667Z,96.60
